createdAt,value
2022-12-15T00:02:18.842Z,10.30
2022-12-15T00:05:04.331Z,8.95
2022-12-15T00:07:49.687Z,8.88
2022-12-15T00:10:35.051Z,8.00
2022-12-15T00:13:20.440Z,7.35
2022-12-15T00:16:06.829Z,8.93
2022-12-15T00:18:52.414Z,7.03
2022-12-15T00:21:37.400Z,6.85
2022-12-15T00:24:22.969Z,8.38
2022-12-15T00:27:08.458Z,7.78
2022-12-15T00:29:53.996Z,8.32
2022-12-15T00:32:39.459Z,9.88
2022-12-15T00:35:24.726Z,7.75
2022-12-15T00:38:10.403Z,8.55
2022-12-15T00:40:37.102Z,8.30
2022-12-15T00:43:04.551Z,8.30
2022-12-15T00:45:49.623Z,7.95
2022-12-15T00:48:16.446Z,8.50
2022-12-15T00:50:53.903Z,8.73
2022-12-15T00:53:40.941Z,8.57
2022-12-15T00:56:26.419Z,8.95
2022-12-15T00:59:13.203Z,8.57
2022-12-15T01:01:59.763Z,9.25
2022-12-15T01:04:45.827Z,7.18
2022-12-15T01:07:31.466Z,6.07
2022-12-15T01:10:16.716Z,8.73
2022-12-15T01:13:02.450Z,7.90
2022-12-15T01:15:47.907Z,7.72
2022-12-15T01:18:33.696Z,8.68
2022-12-15T01:21:03.525Z,8.05
2022-12-15T01:23:31.185Z,8.52
2022-12-15T01:25:58.638Z,8.73
2022-12-15T01:28:25.496Z,7.60
2022-12-15T01:30:52.709Z,8.00
2022-12-15T01:33:21.156Z,8.00
2022-12-15T01:36:03.745Z,8.10
2022-12-15T01:38:30.489Z,8.85
2022-12-15T01:41:05.086Z,9.07
2022-12-15T01:43:35.384Z,9.30
2022-12-15T01:46:06.958Z,8.70
2022-12-15T01:48:58.725Z,9.13
2022-12-15T01:51:29.435Z,8.20
2022-12-15T01:54:08.289Z,8.65
2022-12-15T01:56:38.380Z,8.20
2022-12-15T01:59:08.921Z,7.63
2022-12-15T02:01:35.799Z,8.23
2022-12-15T02:04:03.169Z,8.32
2022-12-15T02:06:30.405Z,8.60
2022-12-15T02:08:59.815Z,8.40
2022-12-15T02:11:49.883Z,7.88
2022-12-15T02:15:07.136Z,6.93
2022-12-15T02:18:10.173Z,10.10
2022-12-15T02:21:18.576Z,9.00
2022-12-15T02:23:56.365Z,7.68
2022-12-15T02:26:40.946Z,8.07
2022-12-15T02:29:18.314Z,7.60
2022-12-15T02:31:57.354Z,8.80
2022-12-15T02:34:36.316Z,7.07
2022-12-15T02:37:18.219Z,8.18
2022-12-15T02:39:45.232Z,7.78
2022-12-15T02:42:12.084Z,8.63
2022-12-15T02:44:46.822Z,8.05
2022-12-15T02:47:32.050Z,6.75
2022-12-15T02:50:29.014Z,7.88
2022-12-15T02:53:27.763Z,7.15
2022-12-15T02:55:54.574Z,7.10
2022-12-15T02:58:33.815Z,7.40
2022-12-15T03:01:15.117Z,6.45
2022-12-15T03:03:43.952Z,7.30
2022-12-15T03:06:10.881Z,7.25
2022-12-15T03:08:37.506Z,7.38
2022-12-15T03:11:06.425Z,7.60
2022-12-15T03:13:33.661Z,7.43
2022-12-15T03:16:01.373Z,7.82
2022-12-15T03:18:28.140Z,7.45
2022-12-15T03:20:54.922Z,5.97
2022-12-15T03:23:23.190Z,7.80
2022-12-15T03:25:50.523Z,7.68
2022-12-15T03:28:18.613Z,6.43
2022-12-15T03:30:45.299Z,6.88
2022-12-15T03:33:18.158Z,7.32
2022-12-15T03:35:44.906Z,7.45
2022-12-15T03:38:11.726Z,7.30
2022-12-15T03:40:38.357Z,6.90
2022-12-15T03:43:05.330Z,7.05
2022-12-15T03:45:32.211Z,7.05
2022-12-15T03:47:59.135Z,7.07
2022-12-15T03:50:27.881Z,7.65
2022-12-15T03:52:57.111Z,7.30
2022-12-15T03:55:24.485Z,6.18
2022-12-15T03:57:51.557Z,7.18
2022-12-15T04:00:20.549Z,6.65
2022-12-15T04:02:50.337Z,6.18
2022-12-15T04:05:30.414Z,6.88
2022-12-15T04:07:58.969Z,7.43
2022-12-15T04:10:33.634Z,7.38
2022-12-15T04:13:04.379Z,6.50
2022-12-15T04:15:33.326Z,6.97
2022-12-15T04:18:02.791Z,7.10
2022-12-15T04:20:29.776Z,6.65
2022-12-15T04:22:57.860Z,7.35
2022-12-15T04:25:44.167Z,6.47
2022-12-15T04:28:30.738Z,6.57
2022-12-15T04:31:37.616Z,7.10
2022-12-15T04:34:25.204Z,7.47
2022-12-15T04:37:12.780Z,7.13
2022-12-15T04:40:00.802Z,6.93
2022-12-15T04:42:46.764Z,6.03
2022-12-15T04:45:33.520Z,6.88
2022-12-15T04:48:19.005Z,6.25
2022-12-15T04:51:04.358Z,5.57
2022-12-15T04:53:49.605Z,7.00
2022-12-15T04:56:35.614Z,5.65
2022-12-15T04:59:21.715Z,6.60
2022-12-15T05:02:07.462Z,5.85
2022-12-15T05:04:52.885Z,6.72
2022-12-15T05:07:38.637Z,5.53
2022-12-15T05:10:25.241Z,5.97
2022-12-15T05:13:10.507Z,5.82
2022-12-15T05:15:55.906Z,7.00
2022-12-15T05:18:41.719Z,6.40
2022-12-15T05:21:27.384Z,6.38
2022-12-15T05:24:12.575Z,7.22
2022-12-15T05:26:58.388Z,6.75
2022-12-15T05:29:43.366Z,6.43
2022-12-15T05:32:10.015Z,5.60
2022-12-15T05:34:38.023Z,6.75
2022-12-15T05:37:07.110Z,6.35
2022-12-15T05:39:34.047Z,6.85
2022-12-15T05:42:00.915Z,6.80
2022-12-15T05:44:28.625Z,8.32
2022-12-15T05:46:55.638Z,7.00
2022-12-15T05:49:23.284Z,7.30
2022-12-15T05:51:50.556Z,6.93
2022-12-15T05:54:19.668Z,7.40
2022-12-15T05:56:50.356Z,6.47
2022-12-15T05:59:17.237Z,6.85
2022-12-15T06:01:43.954Z,7.00
2022-12-15T06:04:14.351Z,6.63
2022-12-15T06:06:42.006Z,6.90
2022-12-15T06:09:10.272Z,6.97
2022-12-15T06:11:37.725Z,6.55
2022-12-15T06:14:04.716Z,7.05
2022-12-15T06:16:31.949Z,8.40
2022-12-15T06:19:01.122Z,8.40
2022-12-15T06:21:31.202Z,7.68
2022-12-15T06:23:58.552Z,6.82
2022-12-15T06:26:30.875Z,8.82
2022-12-15T06:28:59.587Z,6.78
2022-12-15T06:31:26.956Z,7.22
2022-12-15T06:34:01.351Z,9.48
2022-12-15T06:36:29.011Z,8.52
2022-12-15T06:38:59.505Z,6.53
2022-12-15T06:41:26.348Z,8.30
2022-12-15T06:43:58.443Z,8.32
2022-12-15T06:46:26.900Z,7.75
2022-12-15T06:48:53.817Z,7.28
2022-12-15T06:51:20.824Z,8.32
2022-12-15T06:53:54.402Z,10.18
2022-12-15T06:56:30.697Z,9.70
2022-12-15T06:59:00.150Z,9.55
2022-12-15T07:01:27.684Z,9.43
2022-12-15T07:03:55.295Z,9.75
2022-12-15T07:06:22.798Z,9.20
2022-12-15T07:08:56.868Z,9.25
2022-12-15T07:11:23.777Z,9.18
2022-12-15T07:13:53.024Z,9.57
2022-12-15T07:16:21.288Z,9.57
2022-12-15T07:18:48.028Z,10.73
2022-12-15T07:21:15.070Z,9.80
2022-12-15T07:23:58.131Z,8.90
2022-12-15T07:26:26.053Z,9.73
2022-12-15T07:28:54.215Z,8.02
2022-12-15T07:31:21.226Z,8.50
2022-12-15T07:33:48.563Z,9.30
2022-12-15T07:36:15.859Z,7.03
2022-12-15T07:38:42.828Z,8.05
2022-12-15T07:41:09.873Z,9.10
2022-12-15T07:43:37.423Z,7.97
2022-12-15T07:46:04.970Z,9.25
2022-12-15T07:48:32.907Z,7.93
2022-12-15T07:51:09.628Z,9.20
2022-12-15T07:53:40.697Z,9.00
2022-12-15T07:56:09.409Z,10.30
2022-12-15T07:58:37.507Z,8.45
2022-12-15T08:01:07.152Z,8.77
2022-12-15T08:03:35.185Z,8.15
2022-12-15T08:06:10.378Z,12.07
2022-12-15T08:08:37.452Z,8.90
2022-12-15T08:11:08.567Z,9.85
2022-12-15T08:16:23.254Z,9.50
2022-12-15T08:18:49.968Z,9.35
2022-12-15T08:21:17.012Z,9.20
2022-12-15T08:23:43.886Z,9.52
2022-12-15T08:26:16.302Z,9.55
2022-12-15T08:28:45.031Z,10.88
2022-12-15T08:31:15.105Z,10.18
2022-12-15T08:33:41.768Z,10.38
2022-12-15T08:36:10.823Z,11.35
2022-12-15T08:38:39.389Z,10.57
2022-12-15T08:41:11.727Z,8.73
2022-12-15T08:43:45.793Z,9.90
2022-12-15T08:46:15.262Z,10.75
2022-12-15T08:48:42.029Z,11.18
2022-12-15T08:51:09.832Z,10.40
2022-12-15T08:53:36.448Z,10.18
2022-12-15T08:56:06.287Z,9.65
2022-12-15T08:58:34.827Z,9.95
2022-12-15T09:01:05.319Z,10.98
2022-12-15T09:03:33.979Z,8.77
2022-12-15T09:06:06.024Z,10.85
2022-12-15T09:08:33.063Z,11.25
2022-12-15T09:11:01.663Z,11.07
2022-12-15T09:13:29.228Z,10.40
2022-12-15T09:16:17.050Z,10.68
2022-12-15T09:21:15.602Z,11.25
2022-12-15T09:23:43.288Z,10.93
2022-12-15T09:26:14.485Z,13.13
2022-12-15T09:28:45.056Z,10.63
2022-12-15T09:31:24.398Z,11.30
2022-12-15T09:33:53.558Z,10.77
2022-12-15T09:36:22.480Z,11.55
2022-12-15T09:38:56.892Z,11.77
2022-12-15T09:41:30.088Z,11.40
2022-12-15T09:44:11.050Z,10.13
2022-12-15T09:46:37.777Z,12.43
2022-12-15T09:49:13.783Z,13.20
2022-12-15T09:51:47.985Z,13.60
2022-12-15T09:54:14.832Z,11.65
2022-12-15T09:56:50.319Z,10.82
2022-12-15T09:59:35.095Z,12.00
2022-12-15T10:02:56.137Z,12.85
2022-12-15T10:06:07.421Z,13.75
2022-12-15T10:08:36.868Z,13.30
2022-12-15T10:11:18.092Z,13.63
2022-12-15T10:14:10.868Z,13.45
2022-12-15T10:17:07.584Z,12.32
2022-12-15T10:19:39.236Z,12.50
2022-12-15T10:22:12.190Z,12.05
2022-12-15T10:28:17.533Z,11.07
2022-12-15T10:31:15.045Z,11.97
2022-12-15T10:33:47.149Z,10.63
2022-12-15T10:36:17.245Z,10.38
2022-12-15T10:38:50.305Z,12.07
2022-12-15T10:41:32.943Z,11.07
2022-12-15T10:43:59.623Z,10.95
2022-12-15T10:46:30.815Z,13.35
2022-12-15T10:49:21.374Z,11.57
2022-12-15T10:51:56.136Z,11.00
2022-12-15T10:54:24.354Z,11.73
2022-12-15T10:56:57.960Z,12.68
2022-12-15T10:59:38.755Z,10.68
2022-12-15T11:02:24.017Z,13.45
2022-12-15T11:05:18.336Z,12.07
2022-12-15T11:07:50.969Z,10.55
2022-12-15T11:10:25.380Z,10.48
2022-12-15T11:13:15.858Z,13.63
2022-12-15T11:15:44.229Z,11.80
2022-12-15T11:18:37.918Z,11.15
2022-12-15T11:21:24.929Z,12.98
2022-12-15T11:24:17.417Z,10.52
2022-12-15T11:26:53.273Z,11.00
2022-12-15T11:29:52.589Z,10.90
2022-12-15T11:32:26.257Z,9.77
2022-12-15T11:34:53.322Z,12.15
2022-12-15T11:37:52.386Z,10.65
2022-12-15T11:40:40.311Z,11.63
2022-12-15T11:43:39.131Z,12.23
2022-12-15T11:46:08.074Z,11.82
2022-12-15T11:48:52.969Z,12.30
2022-12-15T11:51:49.593Z,12.18
2022-12-15T11:54:48.358Z,12.00
2022-12-15T11:57:57.108Z,12.13
2022-12-15T12:00:23.903Z,10.82
2022-12-15T12:02:59.267Z,10.65
2022-12-15T12:05:48.900Z,11.13
2022-12-15T12:08:22.075Z,10.85
2022-12-15T12:11:05.832Z,10.48
2022-12-15T12:14:15.907Z,11.05
2022-12-15T12:17:16.218Z,9.95
2022-12-15T12:19:52.564Z,9.23
2022-12-15T12:22:29.690Z,11.95
2022-12-15T12:25:02.451Z,9.68
2022-12-15T12:27:39.645Z,10.35
2022-12-15T12:30:15.612Z,11.52
2022-12-15T12:33:01.274Z,13.57
2022-12-15T12:38:41.448Z,10.73
2022-12-15T12:41:14.013Z,13.50
2022-12-15T12:43:50.423Z,11.32
2022-12-15T12:46:49.072Z,11.18
2022-12-15T12:49:26.666Z,13.30
2022-12-15T12:51:55.546Z,13.43
2022-12-15T12:54:34.598Z,11.82
2022-12-15T12:57:22.276Z,10.43
2022-12-15T12:59:59.225Z,12.13
2022-12-15T13:05:26.081Z,10.95
2022-12-15T13:07:56.993Z,9.75
2022-12-15T13:10:25.355Z,9.93
2022-12-15T13:12:54.791Z,11.52
2022-12-15T13:15:27.831Z,12.32
2022-12-15T13:18:16.464Z,12.52
2022-12-15T13:20:44.926Z,11.00
2022-12-15T13:23:21.269Z,11.00
2022-12-15T13:25:57.094Z,11.05
2022-12-15T13:28:27.255Z,10.63
2022-12-15T13:31:19.358Z,11.23
2022-12-15T13:33:55.768Z,10.80
2022-12-15T13:36:37.794Z,10.20
2022-12-15T13:39:12.465Z,11.05
2022-12-15T13:42:00.240Z,10.05
2022-12-15T13:44:37.848Z,11.82
2022-12-15T13:47:20.928Z,9.85
2022-12-15T13:50:09.083Z,9.77
2022-12-15T13:53:17.177Z,9.52
2022-12-15T13:55:37.424Z,11.15
2022-12-15T13:58:13.640Z,11.23
2022-12-15T14:00:49.468Z,9.45
2022-12-15T14:03:17.520Z,12.07
2022-12-15T14:05:53.575Z,11.80
2022-12-15T14:08:23.211Z,13.07
2022-12-15T14:10:53.355Z,11.65
2022-12-15T14:13:31.197Z,11.75
2022-12-15T14:16:15.396Z,11.75
2022-12-15T14:18:43.064Z,11.00
2022-12-15T14:21:30.582Z,11.85
2022-12-15T14:26:44.676Z,10.30
2022-12-15T14:29:13.131Z,9.18
2022-12-15T14:31:40.778Z,9.15
2022-12-15T14:34:24.619Z,10.90
2022-12-15T14:36:51.859Z,10.52
2022-12-15T14:39:30.439Z,11.68
2022-12-15T14:41:59.148Z,12.25
2022-12-15T14:44:39.075Z,10.93
2022-12-15T14:47:26.841Z,11.77
2022-12-15T14:49:55.558Z,11.05
2022-12-15T14:52:27.240Z,12.60
2022-12-15T14:54:57.802Z,10.65
2022-12-15T14:57:43.670Z,11.35
2022-12-15T15:00:50.057Z,12.02
2022-12-15T15:03:05.022Z,12.10
2022-12-15T15:03:25.458Z,12.70
2022-12-15T15:06:01.819Z,11.63
2022-12-15T15:08:35.325Z,13.23
2022-12-15T15:11:19.701Z,12.85
2022-12-15T15:13:47.047Z,11.38
2022-12-15T15:16:18.797Z,11.05
2022-12-15T15:18:50.656Z,12.82
2022-12-15T15:21:22.528Z,11.18
2022-12-15T15:24:02.892Z,12.25
2022-12-15T15:26:31.235Z,11.18
2022-12-15T15:28:58.794Z,11.10
2022-12-15T15:31:28.114Z,11.20
2022-12-15T15:33:59.394Z,10.07
2022-12-15T15:36:39.638Z,11.57
2022-12-15T15:39:16.121Z,12.90
2022-12-15T15:41:43.129Z,11.77
2022-12-15T15:44:16.783Z,12.32
2022-12-15T15:46:51.933Z,11.82
2022-12-15T15:49:21.809Z,12.90
2022-12-15T15:51:48.958Z,12.48
2022-12-15T15:54:21.218Z,13.15
2022-12-15T15:56:47.803Z,11.43
2022-12-15T15:59:21.120Z,11.55
2022-12-15T16:01:56.166Z,12.63
2022-12-15T16:04:24.262Z,13.15
2022-12-15T16:06:52.219Z,14.25
2022-12-15T16:09:19.301Z,12.93
2022-12-15T16:11:46.723Z,12.70
2022-12-15T16:14:17.402Z,11.88
2022-12-15T16:16:44.863Z,12.77
2022-12-15T16:19:14.491Z,11.75
2022-12-15T16:21:43.131Z,12.38
2022-12-15T16:24:19.308Z,12.10
2022-12-15T16:26:50.236Z,14.60
2022-12-15T16:29:20.128Z,11.70
2022-12-15T16:31:47.344Z,12.18
2022-12-15T16:34:16.643Z,12.63
2022-12-15T16:36:44.874Z,13.65
2022-12-15T16:39:28.493Z,13.07
2022-12-15T16:41:56.324Z,12.20
2022-12-15T16:44:24.149Z,12.30
2022-12-15T16:46:51.609Z,13.32
2022-12-15T16:49:18.421Z,12.27
2022-12-15T16:51:48.362Z,12.38
2022-12-15T16:54:25.492Z,12.57
2022-12-15T16:56:54.226Z,14.15
2022-12-15T16:59:33.149Z,14.00
2022-12-15T17:02:01.067Z,13.82
2022-12-15T17:04:27.856Z,13.35
2022-12-15T17:06:54.686Z,13.52
2022-12-15T17:09:25.369Z,13.63
2022-12-15T17:11:52.571Z,13.00
2022-12-15T17:14:19.181Z,13.10
2022-12-15T17:16:46.046Z,13.77
2022-12-15T17:19:17.547Z,12.27
2022-12-15T17:21:52.540Z,12.55
2022-12-15T17:24:20.523Z,14.05
2022-12-15T17:26:47.389Z,14.90
2022-12-15T17:29:20.218Z,14.25
2022-12-15T17:31:47.241Z,14.93
2022-12-15T17:34:33.424Z,14.43
2022-12-15T17:37:03.109Z,14.60
2022-12-15T17:39:30.700Z,11.98
2022-12-15T17:42:01.060Z,14.40
2022-12-15T17:44:34.453Z,14.70
2022-12-15T17:47:02.618Z,13.75
2022-12-15T17:49:35.005Z,15.20
2022-12-15T17:52:05.473Z,14.00
2022-12-15T17:54:33.845Z,15.20
2022-12-15T17:57:00.547Z,13.18
2022-12-15T17:59:27.243Z,13.18
2022-12-15T18:01:57.028Z,14.43
2022-12-15T18:04:24.115Z,16.08
2022-12-15T18:06:52.023Z,13.85
2022-12-15T18:09:24.205Z,15.05
2022-12-15T18:11:50.887Z,14.73
2022-12-15T18:14:19.348Z,13.88
2022-12-15T18:16:46.678Z,15.57
2022-12-15T18:19:14.834Z,14.48
2022-12-15T18:21:41.661Z,16.42
2022-12-15T18:24:15.068Z,16.27
2022-12-15T18:26:41.939Z,16.15
2022-12-15T18:29:18.091Z,15.65
2022-12-15T18:32:18.704Z,16.52
2022-12-15T18:35:32.565Z,14.13
2022-12-15T18:45:04.345Z,15.32
2022-12-15T18:48:11.176Z,15.65
2022-12-15T18:51:39.428Z,16.52
2022-12-15T18:54:48.030Z,16.75
2022-12-15T19:08:49.987Z,17.45
2022-12-15T19:12:11.016Z,17.58
2022-12-15T19:25:12.150Z,17.02
2022-12-15T19:31:14.547Z,17.88
2022-12-15T19:40:13.676Z,19.70
2022-12-15T19:42:59.673Z,18.38
2022-12-15T19:46:04.124Z,19.08
2022-12-15T19:49:21.333Z,18.67
2022-12-15T19:59:20.289Z,19.25
2022-12-15T20:06:00.172Z,21.55
2022-12-15T20:09:22.501Z,20.98
2022-12-15T20:19:12.110Z,19.27
2022-12-15T20:22:21.152Z,21.85
2022-12-15T20:25:10.175Z,18.60
2022-12-15T20:32:17.474Z,22.70
2022-12-15T20:35:22.137Z,23.92
2022-12-15T20:58:40.656Z,16.67
2022-12-15T21:10:48.839Z,17.17
2022-12-15T21:26:04.277Z,18.17
2022-12-15T21:28:49.051Z,18.60
2022-12-15T21:35:00.581Z,17.63
2022-12-15T21:41:22.048Z,17.55
2022-12-15T21:50:06.609Z,17.08
2022-12-15T21:53:15.189Z,18.67
2022-12-15T21:59:33.301Z,15.65
2022-12-15T22:03:08.195Z,18.08
2022-12-15T22:06:45.970Z,16.95
2022-12-15T22:10:08.962Z,16.33
2022-12-15T22:22:53.124Z,18.67
2022-12-15T22:26:09.479Z,18.55
2022-12-15T22:38:19.310Z,15.48
2022-12-15T22:54:02.495Z,18.95
2022-12-15T22:57:09.181Z,17.75
2022-12-15T23:09:42.908Z,16.38
2022-12-15T23:12:59.415Z,18.23
2022-12-15T23:22:52.661Z,16.40
2022-12-15T23:25:45.266Z,17.02
2022-12-15T23:37:46.475Z,15.82
